X  Close Metar Aviation Weather Data     EHAM Amsterdam Airport Schiphol
Temperature
8°C Temperature
5°C Dewpoint
82% Humidity



Wind
5 KM/H
3 MPH
1 M/S
3 KTS



60°
ENE
Current Conditions

Clear Clear
Pressure 1028.92 (hPa) - 30.38 (inHg)
Visibility 6.2 (mile) - 10 (km)
Airport
Airport-code EHAM

Location: Amsterdam Airport Schiphol
Distance: 32 (km)

Metar:
EHAM 021825Z 06003KT CAVOK 08/05 Q1029 NOSIG

Time: 02-03-2021 19:25 CET